• Join FlightAware (Why Join?)
  • Login
  • US Flag 
03:44AM EDT


 

Airport Tracker/Info


-or-


 

Live Flight TrackerFlight Track Log ✈ N667CD ✈ 01-Jul-2013 ✈ KVNC - KVQQ

Flight Track Log - Related Links

Times and Time Zones

All times are in EDT time to prevent confusion due to time zone crossing. See the N667CD flight status page for this flight to view local times or setup timezone preferences in your user account.

Time Position Orientation Groundspeed Altitude Reporting Facility
EDT Latitude Longitude Course Direction KTS MPH feet Rate Location/Type
09:50AM 27.0833 -82.4333 90° East 129 148 300  Level Tampa TRACON
09:51AM 27.0833 -82.4000 90° East 148 170 1,000 780 Climbing Tampa TRACON
09:52AM 27.1000 -82.3500 69° East 153 176 1,700 720 Climbing Tampa TRACON
09:53AM 27.1333 -82.3333 24° Northeast 175 201 2,500 720 Climbing Tampa TRACON
09:54AM 27.1833 -82.3167 17° North 179 206 3,200 720 Climbing Tampa TRACON
09:55AM 27.2333 -82.3167 360° North 182 209 3,900 720 Climbing Tampa TRACON
09:55AM 27.2833 -82.3167 360° North 178 205 4,500 480 Climbing Tampa TRACON
09:56AM 27.3333 -82.3167 360° North 181 208 4,900 180 Climbing Tampa TRACON
09:58AM 27.3833 -82.3167 360° North 195 224 5,000  Climbing Tampa TRACON
09:59AM 27.4500 -82.3167 360° North 198 228 5,000  Level Tampa TRACON
10:00AM 27.5000 -82.3167 360° North 197 227 5,000  Level Tampa TRACON
10:01AM 27.5500 -82.3333 344° North 192 221 5,100 240 Climbing Tampa TRACON
10:02AM 27.6167 -82.3333 360° North 181 208 5,600 480 Climbing Tampa TRACON
10:03AM 27.6500 -82.3333 360° North 171 197 6,100 600 Climbing Tampa TRACON
10:04AM 27.7000 -82.3333 360° North 168 193 6,800 600 Climbing Tampa TRACON
10:05AM 27.7500 -82.3333 360° North 164 189 7,400 540 Climbing Tampa TRACON
10:06AM 27.8000 -82.3333 360° North 161 185 8,000 480 Climbing Tampa TRACON
10:07AM 27.8500 -82.3333 360° North 163 188 8,500 420 Climbing Tampa TRACON
10:08AM 27.9000 -82.3333 360° North 165 190 9,000 480 Climbing Tampa TRACON
10:09AM 27.9333 -82.3333 360° North 164 189 9,500 420 Climbing Tampa TRACON
10:10AM 27.9833 -82.3167 16° North 165 190 9,900 180 Climbing Tampa TRACON
10:11AM 28.0333 -82.3167 360° North 176 203 10,000  Climbing Tampa TRACON
10:12AM 28.0833 -82.3167 360° North 187 215 10,000  Level Tampa TRACON
10:13AM 28.1333 -82.3167 360° North 187 215 10,000  Level Tampa TRACON
10:14AM 28.1833 -82.3000 16° North 185 213 10,000  Level Tampa TRACON
10:15AM 28.2333 -82.3000 360° North 182 209 10,000  Level Tampa TRACON
10:16AM 28.2833 -82.3000 360° North 182 209 10,000  Level Tampa TRACON
10:17AM 28.3333 -82.3000 360° North 180 207 10,000  Level Tampa TRACON
10:18AM 28.3833 -82.2833 16° North 180 207 10,000  Level Tampa TRACON
10:19AM 28.4333 -82.2833 360° North 181 208 10,000  Level Tampa TRACON
10:20AM 28.4833 -82.2833 360° North 181 208 10,000  Level Tampa TRACON
10:21AM 28.5333 -82.2833 360° North 180 207 10,000  Level Tampa TRACON
10:23AM 28.6367 -82.2658 North 183 211 10,000  Level Jacksonville Center
10:24AM 28.6889 -82.2536 12° North 183 211 10,000  Level Jacksonville Center
10:25AM 28.7408 -82.2414 12° North 181 208 10,000  Level Jacksonville Center
10:26AM 28.7825 -82.2317 12° North 183 211 10,000  Level Jacksonville Center
10:27AM 28.8411 -82.2169 12° North 185 213 10,000  Level Jacksonville Center
10:28AM 28.8911 -82.2072 10° North 183 211 10,000  Level Jacksonville Center
10:29AM 28.9389 -82.1950 13° North 182 209 10,000  Level Jacksonville Center
10:30AM 28.9931 -82.1828 11° North 184 212 10,000  Level Jacksonville Center
10:31AM 29.0369 -82.1706 14° North 184 212 10,000  Level Jacksonville Center
10:32AM 29.0933 -82.1583 11° North 183 211 10,000  Level Jacksonville Center
10:33AM 29.1433 -82.1461 12° North 181 208 10,000  Level Jacksonville Center
10:34AM 29.1892 -82.1339 13° North 182 209 10,000  Level Jacksonville Center
10:36AM 29.2850 -82.1092 13° North 184 212 10,000 -180 Level Jacksonville Center
10:37AM 29.3475 -82.0944 12° North 193 222 9,600 -420 Descending Jacksonville Center
10:38AM 29.4039 -82.0772 15° North 203 234 9,100 -600 Descending Jacksonville Center
10:39AM 29.4600 -82.0506 22° Northeast 206 237 8,500 -600 Descending Jacksonville Center
10:40AM 29.5142 -82.0239 23° Northeast 209 241 8,000 -600 Descending Jacksonville Center
10:41AM 29.5661 -81.9972 24° Northeast 210 242 7,400 -660 Descending Jacksonville Center
10:42AM 29.6139 -81.9728 24° Northeast 208 239 6,800 -660 Descending Jacksonville Center
10:43AM 29.6806 -81.9411 22° Northeast 204 235 6,100 -360 Descending Jacksonville Center
10:44AM 29.7328 -81.9406 North 184 212 6,000 -60 Descending Jacksonville Center
10:46AM 29.7887 -81.9478 354° North  Level FlightAware Approximate
10:46AM 29.8411 -81.9253 354° North 181 208 6,000  Level Jacksonville Center
10:47AM 29.8808 -81.9200 North 180 207 6,000  Level Jacksonville Center
10:48AM 29.9350 -81.9147 North 180 207 6,000  Level Jacksonville Center
10:49AM 29.9808 -81.9069 North 178 205 6,000 -240 Level Jacksonville Center
10:50AM 30.0308 -81.9042 North 181 208 5,600 -780 Descending Jacksonville Center
10:51AM 30.0956 -81.9058 359° North 205 236 4,400 -1,080 Descending Jacksonville Center
10:52AM 30.1500 -81.9125 354° North 202 232 3,400 -1,020 Descending Jacksonville Center
10:53AM 30.1917 -81.9144 358° North 197 227 2,600 -840 Descending Jacksonville Center
10:54AM 30.2397 -81.9164 358° North 127 146 1,800 -780 Descending Jacksonville Center
10:55AM 30.2625 -81.8969 36° Northeast 92 106 1,000 -840 Descending Jacksonville Center
10:57AM 30.2164 -81.8665 150° Southeast  Level FlightAware Approximate
11:04AM 30.2167 -81.8667 19° North  Level FlightAware Approximate
11:05AM 30.2188 -81.8772 19° North  Level Estimated
11:06AM 30.2188 -81.8772 19° North  Level Estimated
11:07AM 30.2188 -81.8772 19° North  Level Estimated
11:08AM 30.2188 -81.8772 19° North  Level Estimated
11:09AM 30.2188 -81.8772 19° North  Level Estimated
11:10AM 30.2188 -81.8772 19° North  Level Estimated
11:11AM 30.2188 -81.8772 19° North  Level Estimated
11:12AM 30.2188 -81.8772 19° North  Level Estimated
11:13AM 30.2188 -81.8772 19° North  Level Estimated